createdAt,value
2018-12-24T00:00:57.099Z,406.14
2018-12-24T00:01:57.105Z,407.18
2018-12-24T00:02:57.074Z,406.97
2018-12-24T00:03:57.089Z,406.53
2018-12-24T00:04:57.053Z,408.50
2018-12-24T00:05:57.033Z,407.65
2018-12-24T00:06:57.026Z,408.39
2018-12-24T00:07:57.028Z,408.84
2018-12-24T00:08:57.015Z,408.48
2018-12-24T00:09:56.986Z,408.47
2018-12-24T00:10:56.976Z,408.74
2018-12-24T00:11:56.966Z,407.85
2018-12-24T00:12:56.989Z,409.86
2018-12-24T00:13:56.956Z,409.84
2018-12-24T00:14:56.935Z,409.11
2018-12-24T00:15:56.939Z,409.97
2018-12-24T00:16:56.934Z,406.68
2018-12-24T00:17:56.906Z,408.99
2018-12-24T00:18:56.892Z,406.30
2018-12-24T00:19:56.881Z,410.36
2018-12-24T00:20:56.859Z,408.91
2018-12-24T00:21:56.871Z,409.01
2018-12-24T00:22:56.836Z,408.89
2018-12-24T00:23:56.840Z,409.30
2018-12-24T00:24:56.833Z,407.43
2018-12-24T00:25:56.815Z,408.01
2018-12-24T00:26:56.820Z,409.48
2018-12-24T00:27:56.794Z,407.89
2018-12-24T00:28:56.894Z,409.42
2018-12-24T00:29:56.760Z,408.70
2018-12-24T00:30:56.752Z,408.88
2018-12-24T00:31:56.736Z,407.60
2018-12-24T00:32:56.762Z,408.35
2018-12-24T00:33:56.727Z,407.23
2018-12-24T00:34:56.720Z,407.68
2018-12-24T00:35:56.690Z,407.96
2018-12-24T00:36:56.676Z,409.34
2018-12-24T00:37:56.691Z,409.43
2018-12-24T00:38:56.710Z,409.83
2018-12-24T00:39:56.666Z,408.72
2018-12-24T00:40:56.658Z,406.90
2018-12-24T00:41:56.634Z,407.20
2018-12-24T00:42:56.631Z,408.18
2018-12-24T00:43:56.603Z,406.56
2018-12-24T00:44:56.609Z,405.57
2018-12-24T00:45:56.603Z,406.83
2018-12-24T00:46:56.591Z,405.47
2018-12-24T00:47:56.590Z,405.65
2018-12-24T00:48:56.576Z,406.65
2018-12-24T00:49:56.611Z,404.86
2018-12-24T00:50:56.530Z,404.60
2018-12-24T00:51:56.535Z,404.79
2018-12-24T00:52:56.538Z,404.62
2018-12-24T00:53:56.502Z,403.77
2018-12-24T00:54:56.496Z,403.94
2018-12-24T00:55:56.515Z,403.70
2018-12-24T00:56:56.473Z,405.29
2018-12-24T00:57:56.481Z,403.52
2018-12-24T00:58:56.458Z,403.31
2018-12-24T00:59:56.455Z,404.47
2018-12-24T01:00:56.468Z,403.67
2018-12-24T01:01:56.425Z,404.41
2018-12-24T01:02:56.414Z,403.64
2018-12-24T01:03:56.427Z,403.50
2018-12-24T01:04:56.402Z,403.96
2018-12-24T01:05:56.405Z,404.61
2018-12-24T01:06:56.381Z,405.74
2018-12-24T01:07:56.371Z,404.94
2018-12-24T01:08:56.339Z,405.17
2018-12-24T01:09:56.350Z,404.32
2018-12-24T01:10:56.355Z,404.68
2018-12-24T01:11:56.328Z,404.45
2018-12-24T01:12:56.313Z,405.21
2018-12-24T01:13:56.294Z,403.97
2018-12-24T01:14:56.282Z,404.88
2018-12-24T01:15:56.300Z,404.33
2018-12-24T01:16:56.251Z,404.70
2018-12-24T01:17:56.253Z,406.09
2018-12-24T01:18:56.239Z,404.71
2018-12-24T01:19:56.242Z,405.84
2018-12-24T01:20:56.224Z,405.70
2018-12-24T01:21:56.236Z,404.53
2018-12-24T01:22:56.195Z,404.93
2018-12-24T01:23:56.192Z,405.29
2018-12-24T01:24:56.177Z,406.35
2018-12-24T01:25:56.146Z,406.45
2018-12-24T01:26:56.140Z,405.35
2018-12-24T01:27:56.172Z,405.16
2018-12-24T01:28:56.127Z,405.21
2018-12-24T01:29:56.119Z,404.82
2018-12-24T01:30:56.108Z,404.91
2018-12-24T01:31:56.100Z,406.09
2018-12-24T01:32:56.113Z,405.27
2018-12-24T01:33:56.103Z,404.55
2018-12-24T01:34:56.055Z,405.24
2018-12-24T01:35:56.053Z,405.94
2018-12-24T01:36:56.033Z,406.55
2018-12-24T01:37:56.032Z,405.03
2018-12-24T01:38:56.041Z,405.43
2018-12-24T01:39:56.002Z,404.44
2018-12-24T01:40:55.991Z,404.78
2018-12-24T01:41:55.992Z,404.09
2018-12-24T01:42:55.980Z,405.15
2018-12-24T01:43:56.003Z,405.97
2018-12-24T01:44:55.958Z,405.25
2018-12-24T01:45:55.931Z,404.97
2018-12-24T01:46:55.932Z,404.35
2018-12-24T01:47:55.914Z,406.23
2018-12-24T01:48:55.900Z,407.02
2018-12-24T01:49:56.026Z,406.24
2018-12-24T01:50:55.895Z,404.93
2018-12-24T01:51:55.887Z,404.92
2018-12-24T01:52:55.876Z,406.50
2018-12-24T01:53:55.846Z,406.07
2018-12-24T01:54:55.839Z,404.98
2018-12-24T01:55:55.856Z,405.22
2018-12-24T01:56:55.851Z,405.92
2018-12-24T01:57:55.845Z,404.43
2018-12-24T01:58:55.805Z,405.59
2018-12-24T01:59:55.810Z,406.57
2018-12-24T02:00:55.785Z,404.96
2018-12-24T02:01:55.777Z,404.67
2018-12-24T02:02:55.769Z,405.14
2018-12-24T02:03:55.773Z,404.65
2018-12-24T02:04:55.746Z,404.48
2018-12-24T02:05:55.740Z,405.52
2018-12-24T02:06:55.750Z,405.93
2018-12-24T02:07:55.716Z,404.81
2018-12-24T02:08:55.712Z,404.21
2018-12-24T02:09:55.681Z,405.72
2018-12-24T02:10:55.706Z,403.94
2018-12-24T02:11:55.649Z,403.84
2018-12-24T02:12:55.652Z,405.25
2018-12-24T02:13:55.640Z,404.74
2018-12-24T02:14:55.624Z,404.36
2018-12-24T02:15:55.615Z,404.29
2018-12-24T02:16:55.628Z,405.75
2018-12-24T02:17:55.599Z,405.68
2018-12-24T02:18:55.576Z,404.07
2018-12-24T02:19:55.572Z,406.10
2018-12-24T02:20:55.553Z,404.25
2018-12-24T02:21:55.599Z,405.65
2018-12-24T02:22:55.607Z,404.74
2018-12-24T02:23:55.540Z,406.04
2018-12-24T02:24:55.537Z,405.40
2018-12-24T02:25:55.526Z,405.15
2018-12-24T02:26:55.518Z,406.72
2018-12-24T02:27:55.491Z,406.40
2018-12-24T02:28:55.511Z,404.36
2018-12-24T02:29:55.470Z,406.25
2018-12-24T02:30:55.441Z,406.01
2018-12-24T02:31:55.461Z,405.62
2018-12-24T02:32:55.441Z,406.07
2018-12-24T02:33:55.445Z,406.01
2018-12-24T02:34:55.482Z,404.81
2018-12-24T02:35:55.406Z,405.91
2018-12-24T02:36:55.399Z,405.89
2018-12-24T02:37:55.368Z,404.10
2018-12-24T02:38:55.375Z,404.39
2018-12-24T02:39:55.370Z,405.20
2018-12-24T02:40:55.347Z,405.25
2018-12-24T02:41:55.460Z,404.31
2018-12-24T02:42:55.326Z,405.33
2018-12-24T02:43:55.338Z,405.14
2018-12-24T02:44:55.294Z,405.22
2018-12-24T02:45:55.301Z,404.49
2018-12-24T02:46:55.286Z,404.03
2018-12-24T02:47:55.266Z,405.08
2018-12-24T02:48:55.255Z,405.89
2018-12-24T02:49:55.261Z,404.88
2018-12-24T02:50:55.258Z,404.66
2018-12-24T02:51:55.216Z,405.23
2018-12-24T02:52:55.217Z,405.13
2018-12-24T02:53:55.205Z,405.82
2018-12-24T02:54:55.211Z,405.37
2018-12-24T02:55:55.174Z,405.17
2018-12-24T02:56:55.178Z,405.80
2018-12-24T02:57:55.156Z,406.30
2018-12-24T02:58:55.149Z,406.08
2018-12-24T02:59:55.161Z,405.46
2018-12-24T03:00:55.161Z,404.04
2018-12-24T03:01:55.109Z,406.05
2018-12-24T03:02:55.105Z,405.01
2018-12-24T03:03:55.092Z,405.96
2018-12-24T03:04:55.073Z,405.63
2018-12-24T03:05:55.077Z,405.69
2018-12-24T03:06:55.108Z,406.12
2018-12-24T03:07:55.062Z,405.70
2018-12-24T03:08:55.049Z,405.01
2018-12-24T03:09:55.022Z,405.79
2018-12-24T03:10:55.009Z,406.32
2018-12-24T03:11:55.001Z,406.60
2018-12-24T03:13:02.649Z,406.54
2018-12-24T03:13:55.990Z,405.45
2018-12-24T03:14:54.979Z,405.54
2018-12-24T03:15:54.961Z,407.09
2018-12-24T03:16:54.947Z,405.62
2018-12-24T03:17:54.957Z,405.81
2018-12-24T03:18:54.925Z,406.31
2018-12-24T03:19:54.920Z,406.32
2018-12-24T03:20:54.910Z,406.46
2018-12-24T03:21:54.891Z,405.18
2018-12-24T03:22:54.913Z,405.73
2018-12-24T03:23:54.868Z,405.42
2018-12-24T03:24:54.854Z,404.88
2018-12-24T03:25:54.867Z,405.48
2018-12-24T03:26:54.874Z,405.71
2018-12-24T03:27:54.887Z,405.93
2018-12-24T03:28:54.825Z,406.92
2018-12-24T03:29:54.814Z,406.13
2018-12-24T03:30:54.802Z,405.83
2018-12-24T03:31:54.804Z,404.98
2018-12-24T03:32:54.781Z,405.55
2018-12-24T03:33:54.793Z,406.08
2018-12-24T03:34:54.749Z,406.05
2018-12-24T03:35:54.736Z,405.69
2018-12-24T03:36:54.724Z,405.77
2018-12-24T03:37:54.734Z,406.78
2018-12-24T03:38:54.713Z,406.58
2018-12-24T03:39:54.724Z,406.47
2018-12-24T03:40:54.693Z,405.37
2018-12-24T03:41:54.668Z,407.54
2018-12-24T03:42:54.662Z,405.88
2018-12-24T03:43:54.675Z,406.48
2018-12-24T03:44:54.676Z,405.37
2018-12-24T03:45:54.638Z,405.56
2018-12-24T03:46:54.632Z,406.34
2018-12-24T03:47:54.618Z,406.27
2018-12-24T03:48:54.600Z,406.80
2018-12-24T03:49:54.604Z,407.55
2018-12-24T03:50:54.606Z,406.92
2018-12-24T03:51:54.577Z,406.17
2018-12-24T03:52:54.558Z,406.05
2018-12-24T03:53:54.561Z,406.66
2018-12-24T03:54:54.531Z,406.79
2018-12-24T03:55:54.550Z,405.98
2018-12-24T03:56:54.502Z,405.87
2018-12-24T03:57:54.512Z,407.17
2018-12-24T03:58:54.500Z,405.51
2018-12-24T03:59:54.485Z,405.66
2018-12-24T04:00:54.477Z,406.08
2018-12-24T04:01:54.487Z,406.68
2018-12-24T04:02:54.445Z,406.91
2018-12-24T04:03:54.432Z,406.75
2018-12-24T04:04:54.435Z,406.44
2018-12-24T04:05:54.415Z,406.50
2018-12-24T04:06:54.431Z,407.28
2018-12-24T04:07:54.387Z,406.46
2018-12-24T04:08:54.372Z,407.70
2018-12-24T04:09:54.381Z,408.00
2018-12-24T04:10:54.366Z,406.58
2018-12-24T04:11:54.369Z,407.10
2018-12-24T04:12:54.362Z,406.45
2018-12-24T04:13:54.334Z,406.73
2018-12-24T04:14:54.309Z,407.39
2018-12-24T04:15:54.305Z,406.24
2018-12-24T04:16:54.296Z,405.88
2018-12-24T04:17:54.309Z,407.30
2018-12-24T04:18:54.278Z,408.10
2018-12-24T04:19:54.242Z,405.98
2018-12-24T04:20:54.246Z,405.55
2018-12-24T04:21:54.236Z,406.72
2018-12-24T04:22:54.255Z,406.23
2018-12-24T04:23:54.217Z,407.90
2018-12-24T04:24:54.213Z,408.07
2018-12-24T04:25:54.190Z,406.92
2018-12-24T04:26:54.189Z,407.87
2018-12-24T04:27:54.171Z,406.93
2018-12-24T04:28:54.190Z,406.28
2018-12-24T04:29:54.158Z,407.45
2018-12-24T04:30:54.160Z,408.27
2018-12-24T04:31:54.131Z,408.85
2018-12-24T04:32:54.141Z,407.27
2018-12-24T04:33:54.111Z,407.14
2018-12-24T04:34:54.109Z,407.79
2018-12-24T04:35:54.090Z,407.41
2018-12-24T04:36:54.088Z,408.97
2018-12-24T04:37:54.095Z,407.02
2018-12-24T04:38:54.064Z,407.29
2018-12-24T04:39:54.093Z,407.23
2018-12-24T04:40:54.052Z,407.33
2018-12-24T04:41:54.037Z,407.42
2018-12-24T04:42:54.045Z,406.38
2018-12-24T04:43:54.000Z,408.22
2018-12-24T04:44:53.989Z,408.47
2018-12-24T04:45:53.984Z,408.09
2018-12-24T04:46:53.962Z,408.43
2018-12-24T04:47:53.966Z,408.31
2018-12-24T04:48:53.977Z,407.46
2018-12-24T04:49:53.951Z,408.12
2018-12-24T04:50:53.927Z,408.25
2018-12-24T04:51:53.925Z,407.24
2018-12-24T04:52:53.905Z,406.85
2018-12-24T04:53:53.940Z,408.03
2018-12-24T04:54:53.885Z,407.72
2018-12-24T04:55:53.887Z,408.16
2018-12-24T04:56:53.863Z,409.10
2018-12-24T04:57:53.842Z,408.03
2018-12-24T04:58:53.844Z,407.91
2018-12-24T04:59:53.884Z,408.40
2018-12-24T05:00:53.810Z,407.98
2018-12-24T05:01:53.813Z,408.03
2018-12-24T05:02:53.803Z,407.07
2018-12-24T05:03:53.785Z,408.52
2018-12-24T05:04:53.802Z,407.12
2018-12-24T05:05:53.777Z,408.52
2018-12-24T05:06:53.743Z,408.31
2018-12-24T05:07:53.772Z,407.72
2018-12-24T05:08:53.743Z,407.58
2018-12-24T05:09:53.712Z,408.47
2018-12-24T05:10:53.720Z,409.00
2018-12-24T05:11:53.689Z,408.37
2018-12-24T05:12:53.701Z,407.75
2018-12-24T05:13:53.675Z,408.46
2018-12-24T05:14:53.678Z,409.57
2018-12-24T05:15:53.652Z,407.62
2018-12-24T05:16:53.667Z,407.82
2018-12-24T05:17:53.623Z,407.98
2018-12-24T05:18:53.615Z,408.70
2018-12-24T05:19:53.607Z,407.75
2018-12-24T05:20:53.602Z,409.33
2018-12-24T05:21:53.625Z,407.38
2018-12-24T05:22:53.598Z,409.44
2018-12-24T05:23:53.555Z,408.26
2018-12-24T05:24:53.571Z,408.06
2018-12-24T05:25:53.553Z,407.68
2018-12-24T05:26:54.789Z,408.40
2018-12-24T05:27:53.531Z,408.49
2018-12-24T05:28:53.524Z,406.53
2018-12-24T05:29:53.537Z,407.77
2018-12-24T05:30:53.491Z,408.61
2018-12-24T05:31:53.487Z,407.04
2018-12-24T05:32:53.494Z,408.22
2018-12-24T05:33:53.460Z,406.27
2018-12-24T05:34:53.448Z,407.11
2018-12-24T05:35:53.473Z,407.24
2018-12-24T05:36:53.434Z,407.01
2018-12-24T05:37:53.445Z,407.96
2018-12-24T05:38:53.399Z,407.39
2018-12-24T05:39:53.408Z,407.12
2018-12-24T05:40:53.403Z,407.66
2018-12-24T05:41:53.365Z,409.00
2018-12-24T05:42:53.357Z,408.22
2018-12-24T05:43:53.361Z,406.75
2018-12-24T05:44:53.337Z,407.25
2018-12-24T05:45:53.341Z,407.50
2018-12-24T05:46:53.327Z,407.43
2018-12-24T05:47:53.308Z,409.22
2018-12-24T05:48:53.335Z,406.82
2018-12-24T05:49:53.284Z,407.11
2018-12-24T05:50:53.273Z,407.92
2018-12-24T05:51:53.267Z,407.20
2018-12-24T05:52:53.280Z,407.83
2018-12-24T05:53:53.246Z,408.48
2018-12-24T05:54:53.235Z,408.98
2018-12-24T05:55:53.228Z,406.49
2018-12-24T05:56:53.210Z,408.20
2018-12-24T05:57:53.218Z,407.69
2018-12-24T05:58:53.186Z,407.88
2018-12-24T05:59:53.216Z,406.75
2018-12-24T06:00:53.173Z,407.30
2018-12-24T06:01:53.143Z,407.27
2018-12-24T06:02:53.137Z,407.46
2018-12-24T06:03:53.125Z,406.82
2018-12-24T06:04:53.111Z,407.48
2018-12-24T06:05:53.133Z,407.02
2018-12-24T06:06:53.107Z,408.11
2018-12-24T06:07:53.101Z,407.67
2018-12-24T06:08:53.088Z,406.62
2018-12-24T06:09:53.071Z,406.44
2018-12-24T06:10:53.091Z,406.29
2018-12-24T06:11:53.049Z,406.40
2018-12-24T06:12:53.048Z,407.25
2018-12-24T06:13:57.947Z,406.44
2018-12-24T06:14:54.003Z,407.95
2018-12-24T06:15:53.006Z,408.77
2018-12-24T06:16:53.011Z,407.02
2018-12-24T06:17:52.986Z,406.84
2018-12-24T06:18:52.971Z,407.53
2018-12-24T06:19:52.958Z,406.49
2018-12-24T06:20:52.960Z,407.41
2018-12-24T06:21:52.947Z,407.54
2018-12-24T06:22:53.018Z,406.27
2018-12-24T06:23:52.919Z,406.47
2018-12-24T06:24:52.902Z,407.69
2018-12-24T06:25:52.898Z,406.88
2018-12-24T06:26:52.908Z,406.78
2018-12-24T06:27:52.864Z,406.20
2018-12-24T06:28:52.854Z,406.42
2018-12-24T06:29:52.866Z,408.54
2018-12-24T06:30:52.846Z,407.32
2018-12-24T06:31:52.858Z,406.36
2018-12-24T06:32:52.820Z,406.74
2018-12-24T06:33:52.810Z,407.76
2018-12-24T06:34:52.798Z,408.14
2018-12-24T06:35:52.778Z,406.79
2018-12-24T06:36:52.803Z,406.27
2018-12-24T06:37:52.763Z,406.50
2018-12-24T06:38:52.761Z,407.03
2018-12-24T06:39:52.740Z,406.44
2018-12-24T06:40:52.730Z,407.42
2018-12-24T06:41:52.710Z,406.85
2018-12-24T06:42:52.712Z,406.97
2018-12-24T06:43:52.727Z,407.69
2018-12-24T06:44:52.701Z,407.40
2018-12-24T06:45:52.669Z,406.02
2018-12-24T06:46:52.668Z,407.54
2018-12-24T06:47:52.666Z,407.19
2018-12-24T06:48:52.642Z,406.80
2018-12-24T06:49:52.634Z,406.86
2018-12-24T06:50:52.619Z,406.52
2018-12-24T06:51:52.610Z,407.57
2018-12-24T06:52:52.623Z,407.87
2018-12-24T06:53:52.583Z,407.99
2018-12-24T06:54:52.596Z,406.64
2018-12-24T06:55:52.569Z,406.51
2018-12-24T06:56:52.550Z,406.33
2018-12-24T06:57:52.551Z,407.37
2018-12-24T06:58:52.537Z,407.10
2018-12-24T06:59:52.526Z,407.23
2018-12-24T07:00:52.528Z,406.75
2018-12-24T07:01:52.512Z,407.16
2018-12-24T07:02:52.508Z,408.01
2018-12-24T07:03:52.485Z,408.14
2018-12-24T07:04:52.471Z,407.55
2018-12-24T07:05:52.464Z,406.37
2018-12-24T07:06:52.437Z,407.07
2018-12-24T07:07:52.437Z,406.19
2018-12-24T07:08:52.422Z,406.77
2018-12-24T07:09:52.437Z,405.54
2018-12-24T07:10:52.407Z,406.74
2018-12-24T07:11:52.403Z,407.34
2018-12-24T07:12:52.382Z,407.62
2018-12-24T07:13:52.358Z,408.24
2018-12-24T07:14:52.387Z,408.20
2018-12-24T07:15:52.366Z,407.23
2018-12-24T07:16:52.338Z,408.09
2018-12-24T07:17:52.316Z,407.56
2018-12-24T07:18:52.313Z,407.77
2018-12-24T07:19:52.319Z,409.11
2018-12-24T07:20:52.324Z,408.89
2018-12-24T07:21:52.290Z,407.91
2018-12-24T07:22:52.403Z,406.51
2018-12-24T07:23:52.278Z,407.95
2018-12-24T07:24:52.254Z,408.42
2018-12-24T07:25:52.234Z,407.70
2018-12-24T07:26:52.265Z,407.98
2018-12-24T07:27:52.224Z,408.07
2018-12-24T07:28:59.018Z,407.55
2018-12-24T07:29:53.208Z,407.45
2018-12-24T07:30:52.193Z,406.72
2018-12-24T07:31:52.194Z,407.52
2018-12-24T07:32:52.171Z,408.84
2018-12-24T07:33:52.157Z,407.12
2018-12-24T07:34:52.151Z,407.35
2018-12-24T07:35:52.132Z,408.76
2018-12-24T07:36:52.163Z,408.25
2018-12-24T07:37:52.107Z,408.58
2018-12-24T07:38:52.103Z,407.80
2018-12-24T07:39:52.086Z,407.47
2018-12-24T07:40:52.080Z,408.28
2018-12-24T07:41:52.057Z,407.23
2018-12-24T07:42:52.064Z,407.16
2018-12-24T07:43:52.035Z,407.73
2018-12-24T07:44:52.035Z,408.24
2018-12-24T07:45:52.024Z,408.19
2018-12-24T07:46:52.032Z,408.21
2018-12-24T07:47:52.031Z,407.78
2018-12-24T07:48:52.001Z,408.23
2018-12-24T07:49:51.978Z,407.66
2018-12-24T07:50:51.987Z,408.66
2018-12-24T07:51:51.958Z,408.61
2018-12-24T07:52:51.954Z,407.84
2018-12-24T07:53:51.963Z,408.29
2018-12-24T07:54:51.927Z,409.14
2018-12-24T07:55:51.937Z,409.06
2018-12-24T07:56:51.893Z,408.42
2018-12-24T07:57:51.898Z,408.60
2018-12-24T07:58:51.914Z,407.60
2018-12-24T07:59:51.877Z,407.89
2018-12-24T08:00:51.864Z,409.67
2018-12-24T08:01:51.845Z,407.70
2018-12-24T08:02:51.850Z,407.97
2018-12-24T08:03:51.829Z,408.46
2018-12-24T08:04:51.840Z,407.77
2018-12-24T08:05:51.806Z,407.88
2018-12-24T08:06:51.787Z,408.91
2018-12-24T08:07:51.781Z,408.08
2018-12-24T08:08:51.767Z,407.46
2018-12-24T08:09:51.784Z,408.76
2018-12-24T08:10:51.774Z,407.08
2018-12-24T08:11:51.750Z,408.77
2018-12-24T08:12:51.728Z,407.52
2018-12-24T08:13:51.710Z,408.65
2018-12-24T08:14:51.706Z,407.90
2018-12-24T08:15:51.718Z,408.71
2018-12-24T08:16:51.676Z,409.16
2018-12-24T08:17:51.685Z,407.73
2018-12-24T08:18:51.665Z,408.43
2018-12-24T08:19:51.644Z,408.13
2018-12-24T08:20:51.649Z,408.05
2018-12-24T08:21:51.631Z,409.20
2018-12-24T08:22:51.617Z,408.96
2018-12-24T08:23:51.621Z,407.65
2018-12-24T08:24:51.605Z,409.05
2018-12-24T08:25:51.606Z,408.31
2018-12-24T08:26:53.720Z,407.61
2018-12-24T08:27:51.570Z,409.17
2018-12-24T08:28:51.552Z,407.86
2018-12-24T08:29:51.550Z,409.32
2018-12-24T08:30:51.541Z,408.88
2018-12-24T08:31:51.548Z,409.27
2018-12-24T08:32:51.519Z,408.69
2018-12-24T08:33:51.487Z,408.85
2018-12-24T08:34:51.489Z,409.69
2018-12-24T08:35:51.487Z,407.80
2018-12-24T08:36:51.481Z,409.12
2018-12-24T08:37:51.519Z,409.03
2018-12-24T08:38:51.451Z,409.05
2018-12-24T08:39:51.427Z,408.76
2018-12-24T08:40:51.417Z,410.14
2018-12-24T08:41:51.420Z,408.63
2018-12-24T08:42:51.400Z,408.16
2018-12-24T08:43:51.420Z,408.07
2018-12-24T08:44:51.388Z,408.46
2018-12-24T08:45:51.365Z,409.05
2018-12-24T08:46:51.357Z,407.82
2018-12-24T08:47:51.344Z,409.56
2018-12-24T08:48:51.367Z,408.94
2018-12-24T08:49:51.324Z,408.70
2018-12-24T08:50:51.318Z,407.45
2018-12-24T08:51:51.295Z,408.73
2018-12-24T08:52:51.293Z,408.12
2018-12-24T08:53:51.289Z,409.69
2018-12-24T08:54:51.308Z,408.77
2018-12-24T08:55:51.263Z,408.49
2018-12-24T08:56:51.290Z,410.19
2018-12-24T08:57:51.254Z,408.12
2018-12-24T08:58:51.229Z,409.27
2018-12-24T08:59:51.205Z,408.60
2018-12-24T09:00:51.211Z,409.32
2018-12-24T09:01:51.227Z,409.23
2018-12-24T09:02:51.192Z,408.20
2018-12-24T09:03:51.175Z,409.06
2018-12-24T09:04:51.163Z,407.58
2018-12-24T09:05:51.141Z,407.63
2018-12-24T09:06:51.155Z,407.96
2018-12-24T09:07:51.161Z,407.18
2018-12-24T09:08:51.119Z,408.72
2018-12-24T09:09:51.164Z,408.51
2018-12-24T09:10:51.113Z,407.97
2018-12-24T09:11:51.082Z,408.73
2018-12-24T09:12:51.095Z,408.63
2018-12-24T09:13:51.116Z,408.87
2018-12-24T09:14:51.066Z,408.45
2018-12-24T09:15:51.066Z,407.23
2018-12-24T09:16:51.054Z,408.86
2018-12-24T09:17:51.012Z,407.63
2018-12-24T09:18:51.005Z,409.44
2018-12-24T09:19:51.004Z,407.28
2018-12-24T09:20:52.752Z,409.03
2018-12-24T09:21:50.991Z,407.48
2018-12-24T09:22:50.969Z,408.39
2018-12-24T09:23:50.951Z,407.89
2018-12-24T09:24:50.939Z,408.30
2018-12-24T09:25:50.940Z,408.83
2018-12-24T09:26:50.952Z,408.17
2018-12-24T09:27:50.929Z,408.49
2018-12-24T09:28:50.908Z,408.07
2018-12-24T09:29:50.887Z,408.95
2018-12-24T09:30:50.945Z,408.11
2018-12-24T09:31:50.872Z,408.53
2018-12-24T09:32:50.855Z,409.88
2018-12-24T09:33:50.861Z,407.72
2018-12-24T09:34:50.839Z,407.90
2018-12-24T09:35:50.846Z,410.26
2018-12-24T09:36:50.845Z,408.61
2018-12-24T09:37:50.816Z,409.18
2018-12-24T09:38:50.793Z,408.01
2018-12-24T09:39:50.794Z,407.47
2018-12-24T09:40:50.774Z,407.66
2018-12-24T09:41:50.779Z,407.70
2018-12-24T09:42:51.714Z,407.90
2018-12-24T09:43:50.729Z,409.76
2018-12-24T09:44:58.718Z,409.06
2018-12-24T09:45:51.718Z,409.73
2018-12-24T09:46:50.743Z,408.05
2018-12-24T09:47:50.704Z,408.43
2018-12-24T09:48:50.689Z,408.27
2018-12-24T09:49:50.666Z,409.22
2018-12-24T09:50:50.777Z,407.55
2018-12-24T09:51:50.643Z,407.73
2018-12-24T09:52:50.679Z,408.59
2018-12-24T09:53:50.661Z,408.01
2018-12-24T09:54:50.624Z,408.22
2018-12-24T09:55:50.602Z,408.84
2018-12-24T09:56:50.598Z,408.74
2018-12-24T09:57:50.583Z,408.40
2018-12-24T09:58:50.594Z,408.82
2018-12-24T09:59:50.580Z,408.39
2018-12-24T10:00:50.567Z,408.70
2018-12-24T10:01:50.542Z,409.71
2018-12-24T10:02:50.549Z,407.52
2018-12-24T10:03:50.520Z,410.05
2018-12-24T10:04:50.508Z,409.65
2018-12-24T10:05:50.506Z,409.26
2018-12-24T10:06:50.498Z,408.24
2018-12-24T10:07:50.505Z,407.88
2018-12-24T10:08:50.486Z,408.15
2018-12-24T10:09:50.454Z,408.56
2018-12-24T10:10:50.442Z,409.37
2018-12-24T10:11:50.465Z,408.58
2018-12-24T10:12:50.467Z,408.58
2018-12-24T10:13:50.414Z,407.69
2018-12-24T10:14:50.404Z,408.62
2018-12-24T10:15:50.394Z,408.64
2018-12-24T10:16:50.376Z,408.76
2018-12-24T10:17:50.401Z,409.55
2018-12-24T10:18:50.358Z,409.43
2018-12-24T10:19:50.347Z,408.60
2018-12-24T10:20:50.341Z,407.99
2018-12-24T10:21:50.322Z,408.76
2018-12-24T10:22:50.309Z,408.61
2018-12-24T10:23:50.324Z,408.73
2018-12-24T10:24:50.288Z,407.20
2018-12-24T10:25:50.287Z,407.68
2018-12-24T10:26:50.279Z,407.42
2018-12-24T10:27:50.252Z,407.89
2018-12-24T10:28:50.279Z,408.64
2018-12-24T10:29:50.244Z,408.40
2018-12-24T10:30:50.228Z,407.80
2018-12-24T10:31:50.230Z,408.23
2018-12-24T10:32:50.209Z,408.30
2018-12-24T10:33:50.225Z,408.94
2018-12-24T10:34:50.175Z,407.94
2018-12-24T10:35:50.164Z,408.57
2018-12-24T10:36:50.153Z,408.59
2018-12-24T10:37:50.164Z,408.66
2018-12-24T10:38:50.178Z,407.75
2018-12-24T10:39:50.130Z,407.82
2018-12-24T10:40:50.134Z,409.01
2018-12-24T10:41:50.104Z,408.53
2018-12-24T10:42:50.102Z,408.48
2018-12-24T10:43:50.109Z,409.00
2018-12-24T10:44:50.106Z,408.65
2018-12-24T10:45:50.057Z,408.47
2018-12-24T10:46:50.068Z,407.54
2018-12-24T10:47:50.043Z,408.33
2018-12-24T10:48:50.031Z,408.19
2018-12-24T10:49:50.056Z,407.95
2018-12-24T10:50:50.049Z,408.42
2018-12-24T10:51:50.003Z,408.61
2018-12-24T10:52:49.991Z,408.11
2018-12-24T10:53:49.970Z,408.70
2018-12-24T10:54:49.992Z,407.56
2018-12-24T10:55:49.948Z,408.82
2018-12-24T10:56:49.946Z,406.89
2018-12-24T10:57:49.937Z,408.06
2018-12-24T10:58:49.931Z,408.70
2018-12-24T10:59:49.907Z,407.56
2018-12-24T11:00:49.922Z,407.85
2018-12-24T11:01:49.894Z,409.05
2018-12-24T11:02:49.894Z,408.07
2018-12-24T11:03:49.874Z,409.84
2018-12-24T11:04:49.861Z,408.05
2018-12-24T11:05:49.864Z,408.24
2018-12-24T11:06:49.828Z,408.66
2018-12-24T11:07:49.822Z,408.31
2018-12-24T11:08:49.809Z,408.95
2018-12-24T11:09:49.812Z,408.77
2018-12-24T11:10:49.823Z,407.99
2018-12-24T11:11:49.806Z,406.65
2018-12-24T11:12:49.783Z,408.18
2018-12-24T11:13:49.758Z,409.11
2018-12-24T11:14:49.744Z,409.04
2018-12-24T11:15:49.746Z,409.25
2018-12-24T11:16:49.749Z,408.63
2018-12-24T11:17:49.729Z,406.93
2018-12-24T11:18:49.706Z,407.86
2018-12-24T11:19:49.694Z,408.66
2018-12-24T11:20:49.688Z,408.88
2018-12-24T11:21:49.718Z,408.21
2018-12-24T11:22:49.672Z,408.73
2018-12-24T11:23:49.659Z,407.17
2018-12-24T11:24:49.657Z,407.78
2018-12-24T11:25:49.633Z,407.57
2018-12-24T11:26:49.612Z,406.54
2018-12-24T11:27:49.634Z,408.25
2018-12-24T11:28:49.592Z,407.31
2018-12-24T11:29:49.588Z,407.45
2018-12-24T11:30:49.583Z,407.17
2018-12-24T11:31:49.559Z,409.35
2018-12-24T11:32:49.552Z,408.57
2018-12-24T11:33:49.563Z,407.59
2018-12-24T11:34:49.541Z,408.77
2018-12-24T11:35:49.526Z,407.44
2018-12-24T11:36:49.515Z,408.52
2018-12-24T11:37:49.490Z,410.40
2018-12-24T11:38:49.507Z,407.45
2018-12-24T11:39:49.478Z,409.06
2018-12-24T11:40:49.469Z,408.16
2018-12-24T11:41:49.464Z,407.82
2018-12-24T11:42:49.462Z,408.17
2018-12-24T11:43:49.475Z,409.18
2018-12-24T11:44:49.428Z,409.41
2018-12-24T11:45:49.414Z,410.00
2018-12-24T11:46:49.395Z,407.84
2018-12-24T11:47:49.403Z,408.28
2018-12-24T11:48:49.382Z,407.81
2018-12-24T11:49:49.383Z,407.47
2018-12-24T11:50:49.352Z,406.78
2018-12-24T11:51:49.347Z,409.75
2018-12-24T11:52:49.328Z,408.58
2018-12-24T11:53:49.441Z,406.94
2018-12-24T11:54:49.341Z,407.49
2018-12-24T11:55:49.308Z,407.88
2018-12-24T11:56:49.291Z,408.04
2018-12-24T11:57:49.280Z,407.10
2018-12-24T11:58:49.269Z,407.88
2018-12-24T11:59:49.278Z,407.88
2018-12-24T12:00:49.263Z,408.75
2018-12-24T12:01:49.263Z,408.04
2018-12-24T12:02:49.241Z,408.57
2018-12-24T12:03:49.213Z,408.45
2018-12-24T12:04:49.220Z,407.41
2018-12-24T12:05:49.195Z,407.61
2018-12-24T12:06:49.190Z,407.22
2018-12-24T12:07:49.172Z,406.69
2018-12-24T12:08:49.169Z,407.04
2018-12-24T12:09:49.166Z,407.02
2018-12-24T12:10:49.139Z,408.14
2018-12-24T12:11:49.136Z,406.48
2018-12-24T12:12:49.107Z,407.78
2018-12-24T12:13:49.115Z,408.27
2018-12-24T12:14:49.144Z,408.11
2018-12-24T12:15:49.120Z,406.98
2018-12-24T12:16:49.085Z,407.75
2018-12-24T12:17:49.078Z,410.38
2018-12-24T12:18:49.046Z,411.40
2018-12-24T12:19:49.047Z,407.75
2018-12-24T12:20:52.704Z,408.28
2018-12-24T12:21:49.026Z,408.35
2018-12-24T12:22:49.012Z,407.31
2018-12-24T12:23:48.999Z,408.71
2018-12-24T12:24:49.335Z,408.53
2018-12-24T12:25:48.982Z,408.33
2018-12-24T12:26:48.986Z,407.72
2018-12-24T12:27:48.960Z,409.48
2018-12-24T12:28:48.959Z,407.20